Wetterdaten: Woche 23.02.15 - 01.03.15 (KW9)
Datum Zeit Temp. Aussen +5cm Feuchte Auss Luftdruck Regen Sonnenschein Regendauer Solar Windben
23.02.2015 00:00 4,1 C 2,7 C 73 % 1000,8 hPa 0,0 l/m 0,00 h 0,00 h 0 W/m 33,2 km/h (5 Bft)
23.02.2015 01:00 3,5 C 1,3 C 80 % 999,6 hPa 0,2 l/m 0,00 h 0,23 h 0 W/m 45,2 km/h (6 Bft)
23.02.2015 02:00 3,0 C 1,1 C 85 % 997,9 hPa 0,2 l/m 0,00 h 0,33 h 0 W/m 37,0 km/h (5 Bft)
23.02.2015 03:00 3,0 C 0,7 C 86 % 996,7 hPa 1,0 l/m 0,00 h 0,80 h 0 W/m 25,4 km/h (4 Bft)
23.02.2015 04:00 1,9 C 0,1 C 91 % 995,8 hPa 1,6 l/m 0,00 h 1,00 h 0 W/m 19,6 km/h (3 Bft)
23.02.2015 05:00 1,5 C 0,2 C 94 % 995,4 hPa 2,6 l/m 0,00 h 1,00 h 0 W/m 21,0 km/h (4 Bft)
23.02.2015 06:00 2,2 C 1,3 C 96 % 994,8 hPa 1,8 l/m 0,00 h 0,97 h 0 W/m 17,0 km/h (3 Bft)
23.02.2015 07:00 3,1 C 1,9 C 97 % 994,9 hPa 1,4 l/m 0,00 h 1,00 h 0 W/m 12,3 km/h (3 Bft)
23.02.2015 08:00 3,0 C 1,7 C 97 % 995,0 hPa 1,4 l/m 0,00 h 0,80 h 7 W/m 13,2 km/h (3 Bft)
23.02.2015 09:00 3,1 C 2,2 C 97 % 994,6 hPa 0,2 l/m 0,00 h 0,67 h 29 W/m 15,5 km/h (3 Bft)
23.02.2015 10:00 3,7 C 2,9 C 98 % 994,3 hPa 0,0 l/m 0,00 h 0,07 h 46 W/m 14,9 km/h (3 Bft)
23.02.2015 11:00 4,3 C 3,7 C 98 % 994,3 hPa 0,0 l/m 0,00 h 0,00 h 92 W/m 21,0 km/h (4 Bft)
23.02.2015 12:00 5,5 C 5,2 C 97 % 994,1 hPa 0,0 l/m 0,00 h 0,00 h 166 W/m 23,9 km/h (4 Bft)
23.02.2015 13:00 6,8 C 6,2 C 92 % 994,0 hPa 0,0 l/m 0,37 h 0,00 h 269 W/m 24,3 km/h (4 Bft)
23.02.2015 14:00 8,7 C 7,2 C 83 % 994,0 hPa 0,0 l/m 0,87 h 0,00 h 369 W/m 26,4 km/h (4 Bft)
23.02.2015 15:00 8,8 C 7,1 C 80 % 993,9 hPa 0,0 l/m 0,27 h 0,23 h 157 W/m 23,8 km/h (4 Bft)
23.02.2015 16:00 7,9 C 5,8 C 84 % 993,9 hPa 0,0 l/m 0,00 h 0,13 h 60 W/m 19,3 km/h (3 Bft)
23.02.2015 17:00 6,0 C 3,4 C 87 % 994,5 hPa 2,4 l/m 0,13 h 0,40 h 18 W/m 21,4 km/h (4 Bft)
23.02.2015 18:00 4,2 C 2,2 C 92 % 995,0 hPa 0,0 l/m 0,00 h 0,00 h 6 W/m 13,7 km/h (3 Bft)
23.02.2015 19:00 4,1 C 2,4 C 94 % 995,5 hPa 0,0 l/m 0,00 h 0,00 h 0 W/m 16,9 km/h (3 Bft)
23.02.2015 20:00 4,3 C 2,8 C 95 % 995,8 hPa 0,0 l/m 0,00 h 0,00 h 0 W/m 17,3 km/h (3 Bft)
23.02.2015 21:00 4,2 C 2,3 C 94 % 996,2 hPa 0,0 l/m 0,00 h 0,00 h 0 W/m 16,2 km/h (3 Bft)
23.02.2015 22:00 3,9 C 2,2 C 93 % 996,8 hPa 0,0 l/m 0,00 h 0,00 h 0 W/m 21,4 km/h (4 Bft)
23.02.2015 23:00 3,6 C 1,7 C 88 % 997,3 hPa 0,0 l/m 0,00 h 0,00 h 0 W/m 19,8 km/h (3 Bft)
24.02.2015 00:00 3,5 C 1,7 C 86 % 997,5 hPa 0,0 l/m 0,00 h 0,00 h 0 W/m 23,7 km/h (4 Bft)
24.02.2015 01:00 3,7 C 2,1 C 85 % 997,9 hPa 0,0 l/m 0,00 h 0,00 h 0 W/m 23,1 km/h (4 Bft)
24.02.2015 02:00 3,6 C 1,8 C 85 % 998,2 hPa 0,0 l/m 0,00 h 0,00 h 0 W/m 24,1 km/h (4 Bft)
24.02.2015 03:00 3,3 C 1,7 C 86 % 998,3 hPa 0,0 l/m 0,00 h 0,00 h 0 W/m 23,2 km/h (4 Bft)
24.02.2015 04:00 3,4 C 1,7 C 85 % 998,7 hPa 0,0 l/m 0,00 h 0,00 h 0 W/m 28,2 km/h (4 Bft)
24.02.2015 05:00 3,3 C 1,7 C 85 % 999,0 hPa 0,2 l/m 0,00 h 0,00 h 0 W/m 27,4 km/h (4 Bft)
24.02.2015 06:00 3,4 C 1,9 C 86 % 999,8 hPa 0,0 l/m 0,00 h 0,27 h 0 W/m 25,5 km/h (4 Bft)
24.02.2015 07:00 3,5 C 1,7 C 88 % 1000,3 hPa 0,0 l/m 0,00 h 0,07 h 8 W/m 26,6 km/h (4 Bft)
24.02.2015 08:00 3,8 C 2,4 C 88 % 1001,1 hPa 0,2 l/m 0,00 h 0,00 h 32 W/m 29,3 km/h (5 Bft)
24.02.2015 09:00 4,1 C 3,2 C 88 % 1002,2 hPa 0,0 l/m 0,10 h 0,00 h 87 W/m 28,9 km/h (5 Bft)
24.02.2015 10:00 5,1 C 4,6 C 87 % 1002,4 hPa 0,0 l/m 0,50 h 0,00 h 243 W/m 32,2 km/h (5 Bft)
24.02.2015 11:00 6,5 C 5,7 C 83 % 1003,3 hPa 0,0 l/m 0,47 h 0,00 h 277 W/m 33,8 km/h (5 Bft)
24.02.2015 12:00 6,6 C 5,8 C 82 % 1004,0 hPa 0,0 l/m 0,20 h 0,00 h 135 W/m 35,3 km/h (5 Bft)
24.02.2015 13:00 5,5 C 4,2 C 88 % 1004,8 hPa 0,2 l/m 0,17 h 0,50 h 158 W/m 35,7 km/h (5 Bft)
24.02.2015 14:00 5,6 C 4,9 C 89 % 1005,8 hPa 0,0 l/m 0,10 h 0,00 h 152 W/m 27,4 km/h (4 Bft)
24.02.2015 15:00 7,0 C 6,1 C 85 % 1006,5 hPa 0,0 l/m 0,53 h 0,00 h 224 W/m 23,3 km/h (4 Bft)
24.02.2015 16:00 7,1 C 5,6 C 83 % 1007,3 hPa 0,0 l/m 0,10 h 0,17 h 69 W/m 20,0 km/h (4 Bft)
24.02.2015 17:00 6,8 C 4,9 C 85 % 1008,4 hPa 0,0 l/m 0,30 h 0,00 h 36 W/m 16,9 km/h (3 Bft)
24.02.2015 18:00 6,0 C 3,4 C 85 % 1009,6 hPa 0,0 l/m 0,00 h 0,00 h 6 W/m 10,3 km/h (2 Bft)
24.02.2015 19:00 5,1 C 2,8 C 87 % 1010,9 hPa 0,0 l/m 0,00 h 0,00 h 0 W/m 10,5 km/h (2 Bft)
24.02.2015 20:00 4,5 C 2,3 C 89 % 1011,5 hPa 0,0 l/m 0,00 h 0,00 h 0 W/m 9,3 km/h (2 Bft)
24.02.2015 21:00 4,0 C 1,8 C 90 % 1011,8 hPa 0,0 l/m 0,00 h 0,00 h 0 W/m 7,1 km/h (2 Bft)
24.02.2015 22:00 3,1 C 1,0 C 92 % 1013,2 hPa 4,0 l/m 0,00 h 0,47 h 0 W/m 18,4 km/h (3 Bft)
24.02.2015 23:00 2,6 C 1,0 C 94 % 1013,1 hPa 0,4 l/m 0,00 h 0,13 h 0 W/m 12,5 km/h (3 Bft)
25.02.2015 00:00 2,7 C 1,2 C 95 % 1013,6 hPa 0,6 l/m 0,00 h 0,63 h 0 W/m 15,2 km/h (3 Bft)
25.02.2015 01:00 2,6 C 1,1 C 96 % 1014,2 hPa 0,2 l/m 0,00 h 0,00 h 0 W/m 10,6 km/h (2 Bft)
25.02.2015 02:00 2,4 C 0,6 C 96 % 1014,4 hPa 0,0 l/m 0,00 h 0,00 h 0 W/m 10,8 km/h (2 Bft)
25.02.2015 03:00 2,2 C 0,6 C 96 % 1014,7 hPa 0,0 l/m 0,00 h 0,00 h 0 W/m 12,8 km/h (3 Bft)
25.02.2015 04:00 1,9 C 0,5 C 96 % 1014,9 hPa 0,0 l/m 0,00 h 0,00 h 0 W/m 12,9 km/h (3 Bft)
25.02.2015 05:00 1,5 C 0,0 C 96 % 1015,2 hPa 0,0 l/m 0,00 h 0,00 h 0 W/m 11,5 km/h (2 Bft)
25.02.2015 06:00 1,4 C 0,0 C 96 % 1015,2 hPa 0,0 l/m 0,00 h 0,00 h 0 W/m 13,0 km/h (3 Bft)
25.02.2015 07:00 1,4 C 0,0 C 97 % 1015,3 hPa 0,0 l/m 0,33 h 0,00 h 15 W/m 14,3 km/h (3 Bft)
25.02.2015 08:00 1,7 C 0,7 C 97 % 1015,8 hPa 0,0 l/m 1,00 h 0,00 h 98 W/m 12,9 km/h (3 Bft)
25.02.2015 09:00 2,9 C 1,7 C 97 % 1016,2 hPa 0,4 l/m 1,00 h 0,00 h 225 W/m 13,3 km/h (3 Bft)
25.02.2015 10:00 5,4 C 3,9 C 96 % 1016,5 hPa 0,0 l/m 1,00 h 0,00 h 372 W/m 15,2 km/h (3 Bft)
25.02.2015 11:00 7,1 C 5,5 C 85 % 1016,6 hPa 0,0 l/m 0,63 h 0,00 h 344 W/m 20,9 km/h (4 Bft)
25.02.2015 12:00 8,0 C 6,9 C 82 % 1016,6 hPa 0,0 l/m 0,73 h 0,00 h 312 W/m 21,6 km/h (4 Bft)
25.02.2015 13:00 7,9 C 7,0 C 81 % 1016,3 hPa 0,0 l/m 0,30 h 0,00 h 211 W/m 20,8 km/h (4 Bft)
25.02.2015 14:00 7,2 C 5,6 C 85 % 1016,3 hPa 0,0 l/m 0,07 h 0,07 h 125 W/m 18,2 km/h (3 Bft)
25.02.2015 15:00 6,8 C 5,9 C 86 % 1016,3 hPa 0,0 l/m 0,00 h 0,00 h 74 W/m 11,3 km/h (2 Bft)
25.02.2015 16:00 6,7 C 4,9 C 84 % 1016,7 hPa 0,2 l/m 0,00 h 0,20 h 24 W/m 14,4 km/h (3 Bft)
25.02.2015 17:00 5,9 C 3,7 C 89 % 1017,2 hPa 0,0 l/m 0,00 h 0,53 h 24 W/m 11,7 km/h (2 Bft)
25.02.2015 18:00 5,2 C 3,3 C 90 % 1017,7 hPa 0,0 l/m 0,00 h 0,00 h 0 W/m 15,2 km/h (3 Bft)
25.02.2015 19:00 5,0 C 3,3 C 91 % 1018,2 hPa 0,0 l/m 0,00 h 0,10 h 0 W/m 9,9 km/h (2 Bft)
25.02.2015 20:00 4,8 C 3,2 C 92 % 1018,4 hPa 0,4 l/m 0,00 h 0,87 h 0 W/m 6,1 km/h (2 Bft)
25.02.2015 21:00 4,6 C 3,2 C 93 % 1018,5 hPa 0,0 l/m 0,00 h 0,10 h 0 W/m 6,1 km/h (2 Bft)
25.02.2015 22:00 4,6 C 3,3 C 94 % 1018,7 hPa 0,0 l/m 0,00 h 0,00 h 0 W/m 6,6 km/h (2 Bft)
25.02.2015 23:00 4,5 C 2,8 C 95 % 1018,9 hPa 0,0 l/m 0,00 h 0,00 h 0 W/m 5,1 km/h (1 Bft)
26.02.2015 00:00 4,3 C 2,8 C 95 % 1019,2 hPa 0,0 l/m 0,00 h 0,00 h 0 W/m 5,2 km/h (1 Bft)
26.02.2015 01:00 4,2 C 2,8 C 96 % 1019,2 hPa 0,0 l/m 0,00 h 0,00 h 0 W/m 6,3 km/h (2 Bft)
26.02.2015 02:00 4,0 C 2,3 C 96 % 1019,0 hPa 0,0 l/m 0,00 h 0,00 h 0 W/m 6,1 km/h (2 Bft)
26.02.2015 03:00 3,5 C 1,7 C 96 % 1018,8 hPa 0,0 l/m 0,00 h 0,00 h 0 W/m 5,9 km/h (2 Bft)
26.02.2015 04:00 3,2 C 1,8 C 96 % 1018,7 hPa 0,0 l/m 0,00 h 0,00 h 0 W/m 6,4 km/h (2 Bft)
26.02.2015 05:00 3,2 C 2,0 C 96 % 1018,9 hPa 0,0 l/m 0,00 h 0,00 h 0 W/m 6,0 km/h (2 Bft)
26.02.2015 06:00 2,9 C 0,9 C 96 % 1018,7 hPa 0,0 l/m 0,00 h 0,00 h 0 W/m 6,7 km/h (2 Bft)
26.02.2015 07:00 2,2 C 0,3 C 96 % 1018,4 hPa 0,0 l/m 0,27 h 0,00 h 17 W/m 6,0 km/h (2 Bft)
26.02.2015 08:00 2,2 C 0,9 C 97 % 1018,3 hPa 0,0 l/m 0,77 h 0,00 h 102 W/m 10,8 km/h (2 Bft)
26.02.2015 09:00 3,6 C 2,5 C 97 % 1017,7 hPa 0,0 l/m 0,97 h 0,00 h 238 W/m 18,0 km/h (3 Bft)
26.02.2015 10:00 6,4 C 4,8 C 97 % 1017,2 hPa 0,0 l/m 1,00 h 0,00 h 389 W/m 17,8 km/h (3 Bft)
26.02.2015 11:00 8,5 C 7,2 C 85 % 1016,7 hPa 0,0 l/m 1,00 h 0,00 h 358 W/m 23,8 km/h (4 Bft)
26.02.2015 12:00 10,0 C 8,7 C 80 % 1015,9 hPa 0,0 l/m 0,97 h 0,00 h 468 W/m 24,8 km/h (4 Bft)
26.02.2015 13:00 10,6 C 9,2 C 76 % 1014,8 hPa 0,0 l/m 0,47 h 0,00 h 244 W/m 26,5 km/h (4 Bft)
26.02.2015 14:00 10,1 C 8,9 C 77 % 1014,1 hPa 0,0 l/m 0,00 h 0,00 h 169 W/m 25,5 km/h (4 Bft)
26.02.2015 15:00 9,8 C 8,9 C 78 % 1013,2 hPa 0,0 l/m 0,00 h 0,00 h 116 W/m 24,3 km/h (4 Bft)
26.02.2015 16:00 9,4 C 8,2 C 79 % 1012,4 hPa 0,0 l/m 0,00 h 0,00 h 82 W/m 24,6 km/h (4 Bft)
26.02.2015 17:00 9,0 C 7,2 C 81 % 1011,9 hPa 0,0 l/m 0,00 h 0,00 h 25 W/m 23,6 km/h (4 Bft)
26.02.2015 18:00 8,1 C 5,9 C 86 % 1011,3 hPa 0,2 l/m 0,00 h 0,03 h 5 W/m 24,1 km/h (4 Bft)
26.02.2015 19:00 7,2 C 5,1 C 92 % 1011,0 hPa 0,8 l/m 0,00 h 1,00 h 0 W/m 24,0 km/h (4 Bft)
26.02.2015 20:00 6,6 C 5,0 C 95 % 1010,2 hPa 1,0 l/m 0,00 h 0,97 h 0 W/m 25,0 km/h (4 Bft)
26.02.2015 21:00 6,4 C 5,0 C 96 % 1009,5 hPa 0,2 l/m 0,00 h 0,30 h 0 W/m 20,8 km/h (4 Bft)
26.02.2015 22:00 6,3 C 5,0 C 97 % 1008,8 hPa 1,0 l/m 0,00 h 1,00 h 0 W/m 17,2 km/h (3 Bft)
26.02.2015 23:00 6,2 C 5,0 C 97 % 1008,2 hPa 2,0 l/m 0,00 h 1,00 h 0 W/m 12,8 km/h (3 Bft)
27.02.2015 00:00 6,1 C 5,0 C 98 % 1007,8 hPa 1,4 l/m 0,00 h 0,97 h 0 W/m 12,6 km/h (3 Bft)
27.02.2015 01:00 6,1 C 5,0 C 98 % 1007,3 hPa 0,8 l/m 0,00 h 0,87 h 0 W/m 12,1 km/h (2 Bft)
27.02.2015 02:00 6,1 C 5,0 C 98 % 1007,3 hPa 1,6 l/m 0,00 h 1,00 h 0 W/m 8,5 km/h (2 Bft)
27.02.2015 03:00 5,7 C 4,4 C 98 % 1007,8 hPa 1,4 l/m 0,00 h 0,97 h 0 W/m 23,7 km/h (4 Bft)
27.02.2015 04:00 4,6 C 3,2 C 98 % 1008,6 hPa 1,2 l/m 0,00 h 1,00 h 0 W/m 28,5 km/h (4 Bft)
27.02.2015 05:00 4,3 C 2,9 C 97 % 1009,5 hPa 1,2 l/m 0,00 h 1,00 h 0 W/m 27,0 km/h (4 Bft)
27.02.2015 06:00 3,6 C 2,1 C 96 % 1010,6 hPa 0,6 l/m 0,00 h 0,93 h 0 W/m 26,6 km/h (4 Bft)
27.02.2015 07:00 3,8 C 2,6 C 95 % 1011,6 hPa 0,2 l/m 0,00 h 0,13 h 5 W/m 13,4 km/h (3 Bft)
27.02.2015 08:00 4,5 C 3,3 C 96 % 1012,5 hPa 0,0 l/m 0,00 h 0,00 h 20 W/m 22,3 km/h (4 Bft)
27.02.2015 09:00 4,7 C 4,0 C 96 % 1013,3 hPa 0,0 l/m 0,00 h 0,00 h 70 W/m 19,3 km/h (3 Bft)
27.02.2015 10:00 5,2 C 4,6 C 95 % 1014,0 hPa 0,0 l/m 0,00 h 0,00 h 128 W/m 20,2 km/h (4 Bft)
27.02.2015 11:00 5,8 C 5,4 C 91 % 1014,7 hPa 0,0 l/m 0,13 h 0,00 h 202 W/m 22,1 km/h (4 Bft)
27.02.2015 12:00 6,6 C 6,4 C 83 % 1015,4 hPa 0,0 l/m 0,70 h 0,00 h 354 W/m 23,9 km/h (4 Bft)
27.02.2015 13:00 7,4 C 6,9 C 75 % 1015,7 hPa 0,0 l/m 0,40 h 0,00 h 278 W/m 24,6 km/h (4 Bft)
27.02.2015 14:00 7,6 C 6,8 C 71 % 1016,2 hPa 0,0 l/m 0,53 h 0,00 h 315 W/m 25,7 km/h (4 Bft)
27.02.2015 15:00 8,3 C 7,4 C 67 % 1016,8 hPa 0,0 l/m 1,00 h 0,00 h 371 W/m 26,4 km/h (4 Bft)
27.02.2015 16:00 7,8 C 6,1 C 64 % 1017,4 hPa 0,0 l/m 0,47 h 0,00 h 124 W/m 20,1 km/h (4 Bft)
27.02.2015 17:00 6,9 C 4,2 C 71 % 1017,8 hPa 0,0 l/m 0,17 h 0,10 h 33 W/m 10,8 km/h (2 Bft)
27.02.2015 18:00 5,5 C 2,0 C 75 % 1018,5 hPa 0,0 l/m 0,00 h 0,00 h 7 W/m 6,2 km/h (2 Bft)
27.02.2015 19:00 4,1 C 1,0 C 79 % 1019,4 hPa 0,0 l/m 0,00 h 0,00 h 0 W/m 6,9 km/h (2 Bft)
27.02.2015 20:00 3,1 C 0,6 C 82 % 1020,0 hPa 0,0 l/m 0,00 h 0,00 h 0 W/m 8,7 km/h (2 Bft)
27.02.2015 21:00 2,5 C -0,2 C 84 % 1020,6 hPa 0,0 l/m 0,00 h 0,00 h 0 W/m 7,0 km/h (2 Bft)
27.02.2015 22:00 1,7 C -0,6 C 86 % 1021,0 hPa 0,0 l/m 0,00 h 0,00 h 0 W/m 6,2 km/h (2 Bft)
27.02.2015 23:00 1,1 C -1,4 C 88 % 1021,0 hPa 0,0 l/m 0,00 h 0,00 h 0 W/m 4,5 km/h (1 Bft)
28.02.2015 00:00 0,3 C -2,2 C 90 % 1020,8 hPa 0,0 l/m 0,00 h 0,00 h 0 W/m 4,2 km/h (1 Bft)
28.02.2015 01:00 -0,2 C -2,1 C 92 % 1021,1 hPa 0,0 l/m 0,00 h 0,00 h 0 W/m 6,4 km/h (2 Bft)
28.02.2015 02:00 -0,3 C -2,0 C 93 % 1020,9 hPa 0,0 l/m 0,00 h 0,00 h 0 W/m 6,9 km/h (2 Bft)
28.02.2015 03:00 -0,5 C -2,4 C 94 % 1020,8 hPa 0,0 l/m 0,00 h 0,00 h 0 W/m 5,6 km/h (1 Bft)
28.02.2015 04:00 -0,9 C -2,8 C 94 % 1020,3 hPa 0,0 l/m 0,00 h 0,00 h 0 W/m 5,7 km/h (1 Bft)
28.02.2015 05:00 -1,2 C -2,8 C 95 % 1019,8 hPa 0,0 l/m 0,00 h 0,00 h 0 W/m 5,8 km/h (2 Bft)
28.02.2015 06:00 -1,2 C -2,8 C 95 % 1019,7 hPa 0,0 l/m 0,00 h 0,00 h 0 W/m 7,3 km/h (2 Bft)
28.02.2015 07:00 -1,1 C -2,2 C 96 % 1019,6 hPa 0,0 l/m 0,43 h 0,00 h 28 W/m 11,2 km/h (2 Bft)
28.02.2015 08:00 -0,4 C -1,1 C 96 % 1019,7 hPa 0,0 l/m 0,80 h 0,00 h 100 W/m 10,7 km/h (2 Bft)
28.02.2015 09:00 1,1 C 0,2 C 97 % 1019,7 hPa 0,0 l/m 1,00 h 0,00 h 282 W/m 13,0 km/h (3 Bft)
28.02.2015 10:00 4,2 C 3,7 C 87 % 1018,9 hPa 0,0 l/m 1,00 h 0,00 h 334 W/m 20,4 km/h (4 Bft)
28.02.2015 11:00 6,3 C 5,5 C 73 % 1018,1 hPa 0,0 l/m 1,00 h 0,00 h 425 W/m 25,0 km/h (4 Bft)
28.02.2015 12:00 8,1 C 7,1 C 65 % 1017,9 hPa 0,0 l/m 0,97 h 0,00 h 411 W/m 23,3 km/h (4 Bft)
28.02.2015 13:00 8,1 C 7,6 C 65 % 1017,1 hPa 0,0 l/m 1,00 h 0,00 h 331 W/m 24,1 km/h (4 Bft)
28.02.2015 14:00 8,5 C 8,0 C 63 % 1016,2 hPa 0,0 l/m 0,70 h 0,00 h 294 W/m 22,9 km/h (4 Bft)
28.02.2015 15:00 9,6 C 7,8 C 58 % 1015,0 hPa 0,0 l/m 1,00 h 0,00 h 345 W/m 30,2 km/h (5 Bft)
28.02.2015 16:00 9,5 C 7,0 C 56 % 1013,9 hPa 0,0 l/m 1,00 h 0,00 h 167 W/m 28,1 km/h (4 Bft)
28.02.2015 17:00 8,3 C 6,0 C 57 % 1013,1 hPa 0,0 l/m 0,17 h 0,00 h 39 W/m 26,6 km/h (4 Bft)
28.02.2015 18:00 7,0 C 4,5 C 64 % 1012,6 hPa 0,0 l/m 0,03 h 0,00 h 7 W/m 22,1 km/h (4 Bft)
28.02.2015 19:00 6,3 C 4,4 C 68 % 1012,2 hPa 0,0 l/m 0,00 h 0,00 h 0 W/m 24,0 km/h (4 Bft)
28.02.2015 20:00 5,9 C 4,3 C 70 % 1011,4 hPa 0,0 l/m 0,00 h 0,00 h 0 W/m 25,0 km/h (4 Bft)
28.02.2015 21:00 5,8 C 4,4 C 70 % 1010,4 hPa 0,0 l/m 0,00 h 0,00 h 0 W/m 22,0 km/h (4 Bft)
28.02.2015 22:00 5,7 C 4,1 C 70 % 1009,1 hPa 0,0 l/m 0,00 h 0,00 h 0 W/m 18,9 km/h (3 Bft)
28.02.2015 23:00 5,7 C 4,3 C 70 % 1007,5 hPa 0,0 l/m 0,00 h 0,00 h 0 W/m 17,1 km/h (3 Bft)
01.03.2015 00:00 6,0 C 4,7 C 70 % 1006,9 hPa 0,0 l/m 0,00 h 0,03 h 0 W/m 19,0 km/h (3 Bft)
01.03.2015 01:00 6,7 C 4,8 C 70 % 1005,3 hPa 0,0 l/m 0,00 h 0,27 h 0 W/m 26,4 km/h (4 Bft)
01.03.2015 02:00 6,7 C 4,6 C 73 % 1004,1 hPa 0,2 l/m 0,00 h 0,40 h 0 W/m 24,9 km/h (4 Bft)
01.03.2015 03:00 5,9 C 3,3 C 84 % 1002,7 hPa 0,4 l/m 0,00 h 1,00 h 0 W/m 20,7 km/h (4 Bft)
01.03.2015 04:00 5,4 C 3,3 C 90 % 1001,5 hPa 0,2 l/m 0,00 h 0,87 h 0 W/m 27,3 km/h (4 Bft)
01.03.2015 05:00 5,5 C 3,7 C 92 % 1001,2 hPa 0,4 l/m 0,00 h 0,90 h 0 W/m 18,2 km/h (3 Bft)
01.03.2015 06:00 6,1 C 4,6 C 95 % 1000,8 hPa 0,0 l/m 0,00 h 0,87 h 0 W/m 22,3 km/h (4 Bft)
01.03.2015 07:00 6,9 C 5,3 C 95 % 1000,9 hPa 0,2 l/m 0,00 h 1,00 h 5 W/m 23,7 km/h (4 Bft)
01.03.2015 08:00 7,4 C 5,8 C 96 % 1001,0 hPa 0,0 l/m 0,17 h 0,83 h 61 W/m 30,6 km/h (5 Bft)
01.03.2015 09:00 8,7 C 7,1 C 93 % 1001,5 hPa 0,0 l/m 0,60 h 0,00 h 174 W/m 37,7 km/h (5 Bft)
01.03.2015 10:00 10,0 C 7,7 C 81 % 1002,0 hPa 0,0 l/m 0,63 h 0,00 h 288 W/m 43,7 km/h (6 Bft)
01.03.2015 11:00 10,4 C 8,2 C 73 % 1002,2 hPa 0,0 l/m 0,53 h 0,00 h 302 W/m 38,5 km/h (5 Bft)
01.03.2015 12:00 11,4 C 9,8 C 66 % 1002,5 hPa 0,0 l/m 0,77 h 0,00 h 492 W/m 47,3 km/h (6 Bft)
01.03.2015 13:00 11,6 C 10,5 C 67 % 1002,2 hPa 0,0 l/m 0,70 h 0,00 h 311 W/m 43,4 km/h (6 Bft)
01.03.2015 14:00 10,8 C 9,7 C 68 % 1002,1 hPa 0,0 l/m 0,20 h 0,00 h 230 W/m 48,2 km/h (6 Bft)
01.03.2015 15:00 11,2 C 9,6 C 67 % 1002,1 hPa 0,0 l/m 0,97 h 0,00 h 352 W/m 40,0 km/h (6 Bft)
01.03.2015 16:00 10,7 C 9,3 C 71 % 1002,1 hPa 0,0 l/m 0,43 h 0,00 h 142 W/m 39,8 km/h (6 Bft)
01.03.2015 17:00 9,8 C 7,9 C 71 % 1002,2 hPa 0,0 l/m 0,00 h 0,00 h 30 W/m 35,3 km/h (5 Bft)
01.03.2015 18:00 8,6 C 6,6 C 79 % 1002,3 hPa 0,0 l/m 0,00 h 0,00 h 4 W/m 21,7 km/h (4 Bft)
01.03.2015 19:00 8,1 C 6,1 C 80 % 1002,1 hPa 0,0 l/m 0,00 h 0,00 h 0 W/m 25,0 km/h (4 Bft)
01.03.2015 20:00 7,5 C 5,6 C 83 % 1001,6 hPa 0,0 l/m 0,00 h 0,00 h 0 W/m 18,8 km/h (3 Bft)
01.03.2015 21:00 7,5 C 5,8 C 85 % 1000,6 hPa 0,0 l/m 0,00 h 0,13 h 0 W/m 15,3 km/h (3 Bft)
01.03.2015 22:00 7,7 C 5,9 C 86 % 999,3 hPa 0,0 l/m 0,00 h 0,07 h 0 W/m 16,7 km/h (3 Bft)
01.03.2015 23:00 7,7 C 5,7 C 85 % 997,9 hPa 0,0 l/m 0,00 h 0,00 h 0 W/m 20,4 km/h (4 Bft)
Min-Datum _ 28.02.15 28.02.15 28.02.15 23.02.15 - - - - 24.02.15
_ Min-Zeit 05:32 05:38 16:38 15:58 - - - - 21:48
Minimum _ -1,3 C -3,3 C 54 % 993,7 hPa - - - - 2,1 km/h (1 Bft)
Max-Datum _ 01.03.15 01.03.15 23.02.15 27.02.15 24.02.15 23.02.15 23.02.15 01.03.15 23.02.15
_ Max-Zeit 12:58 12:40 10:16 23:02 22:12 13:38 01:08 12:40 17:14
Maximum _ 12,1 C 10,6 C 98 % 1021,3 hPa 4,0 l/m 0,03 h 0,03 h 709 W/m 66,9 km/h
W-SW (8 Bft)
Durchschnitt _ 5,3 C 3,7 C 86 % 1009,2 hPa #34,6 l/m #32:06 h #29:26 h 168 W/m 19,6 km/h (3 Bft)
© 2015 W. Hausmann